createdAt,value
2017-01-10T00:00:57.142Z,0.82
2017-01-10T00:02:07.494Z,0.71
2017-01-10T00:03:18.237Z,0.74
2017-01-10T00:04:28.969Z,0.63
2017-01-10T00:05:39.700Z,0.66
2017-01-10T00:06:50.442Z,0.58
2017-01-10T00:08:00.792Z,0.48
2017-01-10T00:09:11.131Z,0.47
2017-01-10T00:10:21.889Z,0.41
2017-01-10T00:11:32.243Z,0.39
2017-01-10T00:12:42.983Z,0.35
2017-01-10T00:13:53.722Z,0.26
2017-01-10T00:15:04.467Z,0.24
2017-01-10T00:16:15.210Z,0.2
2017-01-10T00:17:25.561Z,0.24
2017-01-10T00:18:35.893Z,0.19
2017-01-10T00:19:46.637Z,0.17
2017-01-10T00:20:56.995Z,0.13
2017-01-10T00:22:07.764Z,0.09
2017-01-10T00:23:18.117Z,0.05
2017-01-10T00:24:28.460Z,0.01
2017-01-10T00:25:39.202Z,0.02
2017-01-10T00:26:49.149Z,-0.07
2017-01-10T00:27:59.491Z,-0.12
2017-01-10T00:29:09.836Z,-0.13
2017-01-10T00:30:20.573Z,-0.25
2017-01-10T00:31:30.925Z,-0.3
2017-01-10T00:32:41.261Z,-0.28
2017-01-10T00:33:51.599Z,-0.38
2017-01-10T00:35:02.338Z,-0.3
2017-01-10T00:36:13.080Z,-0.34
2017-01-10T00:37:23.815Z,-0.37
2017-01-10T00:38:34.169Z,-0.37
2017-01-10T00:39:44.900Z,-0.38
2017-01-10T00:40:55.243Z,-0.38
2017-01-10T00:42:05.975Z,-0.41
2017-01-10T00:43:16.729Z,-0.46
2017-01-10T00:44:26.687Z,-0.41
2017-01-10T00:45:37.429Z,-0.46
2017-01-10T00:46:47.775Z,-0.41
2017-01-10T00:47:58.502Z,-0.45
2017-01-10T00:49:09.245Z,-0.48
2017-01-10T00:50:19.590Z,-0.54
2017-01-10T00:51:30.343Z,-0.54
2017-01-10T00:52:40.714Z,-0.56
2017-01-10T00:53:51.067Z,-0.67
2017-01-10T00:55:01.401Z,-0.55
2017-01-10T00:56:12.133Z,-0.59
2017-01-10T00:57:22.476Z,-0.56
2017-01-10T00:58:33.211Z,-0.67
2017-01-10T00:59:43.959Z,-0.58
2017-01-10T01:00:54.700Z,-0.59
2017-01-10T01:02:05.437Z,-0.59
2017-01-10T01:03:16.172Z,-0.56
2017-01-10T01:04:26.520Z,-0.55
2017-01-10T01:05:37.267Z,-0.56
2017-01-10T01:06:48.011Z,-0.64
2017-01-10T01:07:58.770Z,-0.59
2017-01-10T01:09:09.509Z,-0.56
2017-01-10T01:10:19.895Z,-0.62
2017-01-10T01:11:30.630Z,-0.66
2017-01-10T01:12:40.575Z,-0.62
2017-01-10T01:13:51.306Z,-0.66
2017-01-10T01:15:02.077Z,-0.74
2017-01-10T01:16:12.835Z,-0.7
2017-01-10T01:17:23.570Z,-0.8
2017-01-10T01:18:34.317Z,-0.76
2017-01-10T01:19:45.049Z,-0.76
2017-01-10T01:20:55.789Z,-0.7
2017-01-10T01:22:06.532Z,-0.82
2017-01-10T01:23:17.269Z,-0.74
2017-01-10T01:24:27.626Z,-0.76
2017-01-10T01:25:38.366Z,-0.74
2017-01-10T01:26:48.709Z,-0.95
2017-01-10T01:27:59.446Z,-0.8
2017-01-10T01:29:10.187Z,-0.89
2017-01-10T01:30:20.918Z,-0.87
2017-01-10T01:31:31.660Z,-0.91
2017-01-10T01:32:42.392Z,-0.92
2017-01-10T01:33:53.115Z,-0.91
2017-01-10T01:35:03.052Z,-0.89
2017-01-10T01:36:13.399Z,-0.87
2017-01-10T01:37:24.120Z,-0.92
2017-01-10T01:38:34.877Z,-0.89
2017-01-10T01:39:45.601Z,-0.84
2017-01-10T01:40:56.338Z,-0.89
2017-01-10T01:42:06.671Z,-0.82
2017-01-10T01:43:16.620Z,-0.91
2017-01-10T01:44:27.381Z,-0.91
2017-01-10T01:45:38.125Z,-0.92
2017-01-10T01:46:49.125Z,-1.01
2017-01-10T01:47:59.868Z,-0.92
2017-01-10T01:49:09.414Z,-1.07
2017-01-10T01:50:19.747Z,-1.06
2017-01-10T01:51:30.484Z,-1.17
2017-01-10T01:52:41.227Z,-1.11
2017-01-10T01:53:51.983Z,-1.1
2017-01-10T01:55:02.710Z,-1.07
2017-01-10T01:56:13.496Z,-1.04
2017-01-10T01:57:24.242Z,-1.09
2017-01-10T01:58:34.979Z,-1.03
2017-01-10T01:59:44.926Z,-1.03
2017-01-10T02:00:55.707Z,-1.1
2017-01-10T02:02:06.479Z,-1.09
2017-01-10T02:03:17.227Z,-1.25
2017-01-10T02:04:27.963Z,-1.24
2017-01-10T02:05:38.702Z,-1.25
2017-01-10T02:06:49.449Z,-1.31
2017-01-10T02:08:00.188Z,-1.32
2017-01-10T02:09:10.526Z,-1.32
2017-01-10T02:10:21.271Z,-1.37
2017-01-10T02:11:32.012Z,-1.42
2017-01-10T02:12:42.365Z,-1.46
2017-01-10T02:13:53.099Z,-1.46
2017-01-10T02:15:03.835Z,-1.52
2017-01-10T02:16:14.580Z,-1.43
2017-01-10T02:17:24.912Z,-1.48
2017-01-10T02:18:35.247Z,-1.48
2017-01-10T02:19:45.975Z,-1.55
2017-01-10T02:20:56.714Z,-1.45
2017-01-10T02:22:07.445Z,-1.49
2017-01-10T02:23:17.778Z,-1.42
2017-01-10T02:24:28.541Z,-1.4
2017-01-10T02:25:39.284Z,-1.37
2017-01-10T02:26:49.617Z,-1.4
2017-01-10T02:28:00.362Z,-1.37
2017-01-10T02:29:10.713Z,-1.42
2017-01-10T02:30:21.447Z,-1.45
2017-01-10T02:31:32.185Z,-1.48
2017-01-10T02:32:42.918Z,-1.5
2017-01-10T02:33:53.642Z,-1.52
2017-01-10T02:35:04.392Z,-1.56
2017-01-10T02:36:15.127Z,-1.53
2017-01-10T02:37:25.452Z,-1.64
2017-01-10T02:38:35.803Z,-1.67
2017-01-10T02:39:46.535Z,-1.67
2017-01-10T02:40:56.873Z,-1.78
2017-01-10T02:42:07.614Z,-1.81
2017-01-10T02:43:17.947Z,-1.78
2017-01-10T02:44:28.699Z,-1.73
2017-01-10T02:45:39.449Z,-1.74
2017-01-10T02:46:50.183Z,-1.79
2017-01-10T02:48:00.940Z,-1.74
2017-01-10T02:49:11.680Z,-1.73
2017-01-10T02:50:22.652Z,-1.81
2017-01-10T02:51:33.383Z,-1.81
2017-01-10T02:52:43.730Z,-1.68
2017-01-10T02:53:54.077Z,-1.82
2017-01-10T02:55:04.819Z,-1.81
2017-01-10T02:56:15.543Z,-1.82
2017-01-10T02:57:25.893Z,-1.76
2017-01-10T02:58:36.632Z,-1.82
2017-01-10T02:59:47.374Z,-1.91
2017-01-10T03:00:57.712Z,-1.91
2017-01-10T03:02:07.657Z,-1.88
2017-01-10T03:33:49.424Z,-5.29
2017-01-10T03:35:00.166Z,-5.26
2017-01-10T03:36:10.887Z,-5.31
2017-01-10T03:37:21.217Z,-5.23
2017-01-10T03:38:31.946Z,-5.07
2017-01-10T03:39:42.276Z,-4.98
2017-01-10T03:40:53.010Z,-4.83
2017-01-10T03:42:03.743Z,-4.63
2017-01-10T03:43:14.504Z,-4.45
2017-01-10T03:44:24.840Z,-4.33
2017-01-10T03:45:35.170Z,-4.19
2017-01-10T03:46:45.904Z,-3.98
2017-01-10T03:47:56.644Z,-3.87
2017-01-10T03:49:07.393Z,-3.66
2017-01-10T03:50:17.762Z,-3.6
2017-01-10T03:51:28.491Z,-3.39
2017-01-10T03:52:39.252Z,-3.28
2017-01-10T03:53:49.979Z,-3.3
2017-01-10T03:55:00.711Z,-3.15
2017-01-10T03:56:11.443Z,-3.15
2017-01-10T03:57:22.190Z,-3.11
2017-01-10T03:58:32.927Z,-2.99
2017-01-10T03:59:43.699Z,-2.9
2017-01-10T04:01:38.845Z,-2.83
2017-01-10T04:02:49.577Z,-2.78
2017-01-10T04:04:00.304Z,-2.7
2017-01-10T04:05:11.051Z,-2.72
2017-01-10T04:06:21.392Z,-2.75
2017-01-10T04:07:31.722Z,-2.67
2017-01-10T04:08:42.460Z,-2.73
2017-01-10T04:09:52.796Z,-2.78
2017-01-10T04:11:03.533Z,-2.75
2017-01-10T04:12:13.875Z,-2.64
2017-01-10T04:13:24.228Z,-2.6
2017-01-10T04:14:34.953Z,-2.61
2017-01-10T04:15:45.692Z,-2.57
2017-01-10T04:16:55.658Z,-2.58
2017-01-10T04:18:06.396Z,-2.5
2017-01-10T04:19:17.119Z,-2.6
2017-01-10T04:20:27.845Z,-2.46
2017-01-10T04:21:37.792Z,-2.43
2017-01-10T04:22:48.125Z,-2.46
2017-01-10T04:23:58.860Z,-2.42
2017-01-10T04:25:09.203Z,-2.47
2017-01-10T04:26:19.553Z,-2.47
2017-01-10T04:27:30.292Z,-2.47
2017-01-10T04:28:41.018Z,-2.44
2017-01-10T04:29:51.759Z,-2.49
2017-01-10T04:31:02.499Z,-2.44
2017-01-10T04:32:13.224Z,-2.5
2017-01-10T04:33:23.954Z,-2.46
2017-01-10T04:34:34.692Z,-2.47
2017-01-10T04:35:45.376Z,-2.46
2017-01-10T04:36:56.108Z,-2.47
2017-01-10T04:38:06.054Z,-2.5
2017-01-10T04:39:16.818Z,-2.46
2017-01-10T04:40:27.547Z,-2.43
2017-01-10T04:41:38.308Z,-2.44
2017-01-10T04:42:49.033Z,-2.39
2017-01-10T04:43:59.775Z,-2.4
2017-01-10T04:45:10.519Z,-2.39
2017-01-10T04:46:20.856Z,-2.3
2017-01-10T04:47:31.187Z,-2.42
2017-01-10T04:48:41.523Z,-2.42
2017-01-10T04:49:51.852Z,-2.42
2017-01-10T04:51:02.202Z,-2.3
2017-01-10T04:52:12.963Z,-2.34
2017-01-10T04:53:23.707Z,-2.27
2017-01-10T04:54:33.654Z,-2.32
2017-01-10T04:55:44.004Z,-2.25
2017-01-10T04:56:54.761Z,-2.39
2017-01-10T04:58:05.486Z,-2.46
2017-01-10T04:59:15.825Z,-2.49
2017-01-10T05:00:26.546Z,-2.39
2017-01-10T05:01:36.897Z,-2.46
2017-01-10T05:02:47.242Z,-2.46
2017-01-10T05:03:57.987Z,-2.47
2017-01-10T05:05:08.744Z,-2.3
2017-01-10T05:06:19.090Z,-2.39
2017-01-10T05:07:29.432Z,-2.23
2017-01-10T05:08:39.778Z,-2.34
2017-01-10T05:09:50.518Z,-2.18
2017-01-10T05:11:00.857Z,-2.34
2017-01-10T05:12:11.594Z,-2.32
2017-01-10T05:13:21.539Z,-2.32
2017-01-10T05:14:32.275Z,-2.34
2017-01-10T05:15:43.015Z,-2.27
2017-01-10T05:16:53.755Z,-2.17
2017-01-10T05:18:04.484Z,-2.2
2017-01-10T05:19:14.829Z,-2.23
2017-01-10T05:20:25.566Z,-2.23
2017-01-10T05:21:35.928Z,-2.21
2017-01-10T05:22:46.682Z,-2.24
2017-01-10T05:23:57.422Z,-2.28
2017-01-10T05:25:08.186Z,-2.27
2017-01-10T05:26:18.920Z,-2.27
2017-01-10T05:27:29.644Z,-2.39
2017-01-10T05:28:40.394Z,-2.3
2017-01-10T05:29:51.135Z,-2.21
2017-01-10T05:31:01.877Z,-2.23
2017-01-10T05:32:12.645Z,-2.15
2017-01-10T05:33:23.385Z,-2.17
2017-01-10T05:34:33.726Z,-2.14
2017-01-10T05:35:44.469Z,-2.18
2017-01-10T05:36:55.225Z,-2.09
2017-01-10T05:38:05.964Z,-2.14
2017-01-10T05:39:16.695Z,-2.09
2017-01-10T05:40:27.422Z,-2.09
2017-01-10T05:41:38.159Z,-2.02
2017-01-10T05:42:48.105Z,-2.09
2017-01-10T05:43:58.836Z,-2.03
2017-01-10T05:45:09.200Z,-2.02
2017-01-10T05:46:19.544Z,-2.02
2017-01-10T05:47:30.291Z,-1.97
2017-01-10T05:48:40.634Z,-1.99
2017-01-10T05:49:51.381Z,-1.97
2017-01-10T05:51:02.111Z,-1.97
2017-01-10T05:52:12.866Z,-1.96
2017-01-10T05:53:23.614Z,-1.96
2017-01-10T05:54:34.348Z,-1.88
2017-01-10T05:55:44.684Z,-1.89
2017-01-10T05:56:55.416Z,-1.91
2017-01-10T05:58:06.139Z,-1.99
2017-01-10T05:59:16.479Z,-1.96
2017-01-10T06:00:27.252Z,-1.88
2017-01-10T06:01:38.006Z,-1.88
2017-01-10T06:02:48.745Z,-1.89
2017-01-10T06:03:59.090Z,-1.89
2017-01-10T06:05:09.830Z,-1.82
2017-01-10T06:06:20.157Z,-1.91
2017-01-10T06:07:30.505Z,-1.89
2017-01-10T06:08:41.243Z,-1.85
2017-01-10T06:09:51.580Z,-1.96
2017-01-10T06:11:02.317Z,-1.92
2017-01-10T06:12:12.658Z,-1.96
2017-01-10T06:13:23.009Z,-1.97
2017-01-10T06:14:33.768Z,-2.03
2017-01-10T06:15:44.514Z,-2.07
2017-01-10T06:16:54.870Z,-2
2017-01-10T06:18:05.610Z,-1.97
2017-01-10T06:19:16.339Z,-1.96
2017-01-10T06:20:26.685Z,-1.96
2017-01-10T06:21:37.433Z,-1.96
2017-01-10T06:22:48.165Z,-1.97
2017-01-10T06:23:58.889Z,-1.92
2017-01-10T06:25:09.635Z,-1.97
2017-01-10T06:26:20.371Z,-1.99
2017-01-10T06:27:30.732Z,-1.96
2017-01-10T06:28:41.464Z,-1.99
2017-01-10T06:29:51.805Z,-2.07
2017-01-10T06:31:02.537Z,-2.12
2017-01-10T06:32:12.875Z,-2.02
2017-01-10T06:33:23.210Z,-2.02
2017-01-10T06:34:33.946Z,-2.03
2017-01-10T06:35:44.681Z,-2
2017-01-10T06:36:54.611Z,-2.09
2017-01-10T06:38:05.358Z,-2.14
2017-01-10T06:39:16.090Z,-2.09
2017-01-10T06:40:26.820Z,-2.05
2017-01-10T06:41:37.560Z,-2.1
2017-01-10T06:42:48.300Z,-2.07
2017-01-10T06:43:59.037Z,-2.1
2017-01-10T06:45:09.813Z,-2.09
2017-01-10T06:46:20.561Z,-2.12
2017-01-10T06:47:30.908Z,-2.06
2017-01-10T06:48:41.663Z,-2.07
2017-01-10T06:49:52.400Z,-2.12
2017-01-10T06:51:03.137Z,-2.17
2017-01-10T06:52:13.863Z,-2
2017-01-10T06:53:24.591Z,-2.1
2017-01-10T06:54:35.321Z,-2.06
2017-01-10T06:55:46.057Z,-2.14
2017-01-10T06:56:56.394Z,-2.15
2017-01-10T06:58:06.746Z,-2.09
2017-01-10T06:59:17.509Z,-2.03
2017-01-10T07:00:28.263Z,-1.97
2017-01-10T07:01:38.603Z,-1.97
2017-01-10T07:02:48.954Z,-1.92
2017-01-10T07:03:59.285Z,-1.94
2017-01-10T07:05:10.017Z,-1.96
2017-01-10T07:06:20.363Z,-1.94
2017-01-10T07:07:31.095Z,-1.99
2017-01-10T07:08:41.432Z,-2
2017-01-10T07:09:52.168Z,-1.89
2017-01-10T07:11:02.895Z,-1.86
2017-01-10T07:12:13.634Z,-1.86
2017-01-10T07:13:24.378Z,-1.89
2017-01-10T07:14:35.127Z,-1.88
2017-01-10T07:15:46.102Z,-1.82
2017-01-10T07:16:56.440Z,-1.82
2017-01-10T07:18:07.182Z,-1.84
2017-01-10T07:19:18.159Z,-1.67
2017-01-10T07:20:28.886Z,-1.79
2017-01-10T07:21:39.629Z,-1.68
2017-01-10T07:22:49.965Z,-1.7
2017-01-10T07:24:00.339Z,-1.76
2017-01-10T07:25:11.080Z,-1.73
2017-01-10T07:26:21.818Z,-1.76
2017-01-10T07:27:32.547Z,-1.76
2017-01-10T07:28:43.270Z,-1.7
2017-01-10T07:29:54.047Z,-1.66
2017-01-10T07:31:04.383Z,-1.73
2017-01-10T07:32:14.731Z,-1.66
2017-01-10T07:33:25.461Z,-1.61
2017-01-10T07:34:35.807Z,-1.61
2017-01-10T07:35:46.552Z,-1.61
2017-01-10T07:36:57.317Z,-1.67
2017-01-10T07:38:08.051Z,-1.64
2017-01-10T07:39:18.794Z,-1.56
2017-01-10T07:40:29.157Z,-1.56
2017-01-10T07:41:39.487Z,-1.56
2017-01-10T07:42:49.445Z,-1.55
2017-01-10T07:44:00.178Z,-1.56
2017-01-10T07:45:10.912Z,-1.55
2017-01-10T07:46:21.653Z,-1.56
2017-01-10T07:47:32.396Z,-1.58
2017-01-10T07:48:43.128Z,-1.48
2017-01-10T07:49:53.471Z,-1.46
2017-01-10T07:51:03.845Z,-1.42
2017-01-10T07:52:14.593Z,-1.31
2017-01-10T07:53:25.349Z,-1.27
2017-01-10T07:54:36.083Z,-1.31
2017-01-10T07:55:46.422Z,-1.32
2017-01-10T07:56:56.770Z,-1.24
2017-01-10T07:58:07.506Z,-1.24
2017-01-10T07:59:17.868Z,-1.13
2017-01-10T08:00:28.604Z,-1.13
2017-01-10T08:01:38.535Z,-1.13
2017-01-10T08:02:48.490Z,-1.06
2017-01-10T08:03:59.239Z,-1.06
2017-01-10T08:05:09.976Z,-0.99
2017-01-10T08:06:20.717Z,-1.03
2017-01-10T08:07:31.469Z,-0.96
2017-01-10T08:08:41.421Z,-0.98
2017-01-10T08:09:52.182Z,-0.95
2017-01-10T08:11:02.556Z,-0.93
2017-01-10T08:12:13.290Z,-0.85
2017-01-10T08:13:24.040Z,-0.93
2017-01-10T08:14:34.775Z,-0.82
2017-01-10T08:15:45.114Z,-0.73
2017-01-10T08:16:55.877Z,-0.62
2017-01-10T08:18:05.822Z,-0.62
2017-01-10T08:19:16.555Z,-0.66
2017-01-10T08:20:27.309Z,-0.59
2017-01-10T08:21:37.648Z,-0.62
2017-01-10T08:22:48.379Z,-0.67
2017-01-10T08:23:58.310Z,-0.58
2017-01-10T08:25:08.657Z,-0.4
2017-01-10T08:26:19.625Z,-0.43
2017-01-10T08:27:30.362Z,-0.37
2017-01-10T08:28:40.707Z,-0.37
2017-01-10T08:29:51.454Z,-0.27
2017-01-10T08:31:01.408Z,-0.18
2017-01-10T08:32:12.142Z,-0.19
2017-01-10T08:33:22.487Z,-0.22
2017-01-10T08:34:33.223Z,-0.07
2017-01-10T08:35:43.583Z,-0.09
2017-01-10T08:36:52.735Z,-0.1
2017-01-10T08:38:03.466Z,0.03
2017-01-10T08:39:14.211Z,0.01
2017-01-10T08:40:24.950Z,0.05
2017-01-10T08:41:35.677Z,0.17
2017-01-10T08:42:46.434Z,0.17
2017-01-10T08:43:56.789Z,0.16
2017-01-10T08:45:07.139Z,0.2
2017-01-10T08:46:17.871Z,0.31
2017-01-10T08:47:28.594Z,0.47
2017-01-10T08:48:38.951Z,0.63
2017-01-10T08:49:48.902Z,0.79
2017-01-10T08:50:59.633Z,0.89
2017-01-10T08:52:09.974Z,0.86
2017-01-10T08:53:20.315Z,0.84
2017-01-10T08:54:31.069Z,0.63
2017-01-10T08:55:41.492Z,0.53
2017-01-10T08:56:52.254Z,0.44
2017-01-10T08:58:02.595Z,0.47
2017-01-10T08:59:12.945Z,0.41
2017-01-10T09:00:23.675Z,0.32
2017-01-10T09:01:34.429Z,0.35
2017-01-10T09:02:45.179Z,0.24
2017-01-10T09:03:55.523Z,0.21
2017-01-10T09:05:06.270Z,0.17
2017-01-10T09:06:16.615Z,0.23
2017-01-10T09:07:27.355Z,0.17
2017-01-10T09:08:38.095Z,0.24
2017-01-10T09:09:48.830Z,0.17
2017-01-10T09:10:59.553Z,0.19
2017-01-10T09:12:10.299Z,0.06
2017-01-10T09:13:20.631Z,0.06
2017-01-10T09:14:31.362Z,0.08
2017-01-10T09:15:42.091Z,0.16
2017-01-10T09:16:52.841Z,0.2
2017-01-10T09:18:02.784Z,0.13
2017-01-10T09:19:13.126Z,0.16
2017-01-10T09:20:23.860Z,0.19
2017-01-10T09:21:34.213Z,0.2
2017-01-10T09:22:44.568Z,0.2
2017-01-10T09:23:55.324Z,0.27
2017-01-10T09:25:06.062Z,0.16
2017-01-10T09:26:16.811Z,0.26
2017-01-10T09:27:27.164Z,0.35
2017-01-10T09:28:37.915Z,0.35
2017-01-10T09:29:48.656Z,0.42
2017-01-10T09:30:58.607Z,0.52
2017-01-10T09:32:09.366Z,0.42
2017-01-10T09:33:20.112Z,0.31
2017-01-10T09:34:30.866Z,0.34
2017-01-10T09:35:41.604Z,0.32
2017-01-10T09:36:51.951Z,0.27
2017-01-10T09:38:02.697Z,0.08
2017-01-10T09:39:13.437Z,-0.04
2017-01-10T09:40:23.782Z,0.09
2017-01-10T09:41:34.512Z,0.24
2017-01-10T09:42:44.866Z,0.32
2017-01-10T09:43:55.607Z,0.35
2017-01-10T09:45:05.996Z,0.28
2017-01-10T09:46:16.745Z,0.21
2017-01-10T09:47:27.468Z,0.2
2017-01-10T09:48:38.204Z,0.2
2017-01-10T09:49:48.951Z,0.19
2017-01-10T09:50:59.701Z,0.03
2017-01-10T09:52:10.052Z,-0.05
2017-01-10T09:53:20.796Z,-0.23
2017-01-10T09:54:31.544Z,-0.2
2017-01-10T09:55:41.483Z,-0.25
2017-01-10T09:56:52.219Z,-0.04
2017-01-10T09:58:02.955Z,0.05
2017-01-10T09:59:13.718Z,-0.02
2017-01-10T10:00:24.459Z,-0.1
2017-01-10T10:01:34.818Z,-0.05
2017-01-10T10:02:44.776Z,-0.13
2017-01-10T10:03:55.114Z,-0.25
2017-01-10T10:05:05.860Z,-0.23
2017-01-10T10:06:15.796Z,-0.27
2017-01-10T10:07:26.124Z,-0.23
2017-01-10T10:08:36.850Z,-0.31
2017-01-10T10:09:47.601Z,-0.33
2017-01-10T10:10:57.552Z,-0.27
2017-01-10T10:12:08.288Z,-0.23
2017-01-10T10:13:19.022Z,-0.28
2017-01-10T10:14:29.789Z,-0.18
2017-01-10T10:15:40.534Z,-0.19
2017-01-10T10:16:52.844Z,-0.15
2017-01-10T10:18:05.741Z,-0.25
2017-01-10T10:19:19.401Z,-0.22
2017-01-10T10:20:30.285Z,-0.09
2017-01-10T10:21:40.634Z,0.01
2017-01-10T10:22:50.986Z,-0.02
2017-01-10T10:24:02.112Z,-0.01
2017-01-10T10:25:12.854Z,0.17
2017-01-10T10:26:23.612Z,0.23
2017-01-10T10:27:33.562Z,0.2
2017-01-10T10:28:44.302Z,0.23
2017-01-10T10:29:55.213Z,0.31
2017-01-10T10:31:05.966Z,0.34
2017-01-10T10:32:16.738Z,0.34
2017-01-10T10:33:27.150Z,0.5
2017-01-10T10:34:37.915Z,0.6
2017-01-10T10:35:48.670Z,0.89
2017-01-10T10:36:58.745Z,1.07
2017-01-10T10:38:08.349Z,1.28
2017-01-10T10:39:19.181Z,1.64
2017-01-10T10:40:30.068Z,1.83
2017-01-10T10:41:41.014Z,1.93
2017-01-10T10:42:52.241Z,2.13
2017-01-10T10:44:03.202Z,2.31
2017-01-10T10:45:13.604Z,2.6
2017-01-10T10:46:24.442Z,2.7
2017-01-10T10:47:34.818Z,3.01
2017-01-10T10:48:44.803Z,3.16
2017-01-10T10:49:55.586Z,3.35
2017-01-10T10:51:06.399Z,3.32
2017-01-10T10:52:16.754Z,3.39
2017-01-10T10:53:27.530Z,3.45
2017-01-10T10:54:38.273Z,3.53
2017-01-10T10:55:49.352Z,3.34
2017-01-10T10:57:00.110Z,3.16
2017-01-10T10:58:10.127Z,3.09
2017-01-10T10:59:20.886Z,3.16
2017-01-10T11:00:31.744Z,3.2
2017-01-10T11:01:42.481Z,3.39
2017-01-10T11:02:53.357Z,3.42
2017-01-10T11:04:04.178Z,3.61
2017-01-10T11:05:14.132Z,3.69
2017-01-10T11:06:24.482Z,3.74
2017-01-10T11:07:35.259Z,3.76
2017-01-10T11:08:46.041Z,3.74
2017-01-10T11:09:56.382Z,3.85
2017-01-10T11:11:06.737Z,3.79
2017-01-10T11:12:17.514Z,3.79
2017-01-10T11:13:28.260Z,3.89
2017-01-10T11:14:39.019Z,3.81
2017-01-10T11:15:49.764Z,3.81
2017-01-10T11:17:00.114Z,3.82
2017-01-10T11:18:10.890Z,3.72
2017-01-10T11:19:21.636Z,3.71
2017-01-10T11:20:32.383Z,3.64
2017-01-10T11:21:43.131Z,3.51
2017-01-10T11:22:53.473Z,3.51
2017-01-10T11:24:04.207Z,3.48
2017-01-10T11:25:14.964Z,3.48
2017-01-10T11:26:25.694Z,3.45
2017-01-10T11:27:36.441Z,3.4
2017-01-10T11:28:46.801Z,3.27
2017-01-10T11:29:57.153Z,3.35
2017-01-10T11:31:07.575Z,3.39
2017-01-10T11:32:18.321Z,3.27
2017-01-10T11:33:29.052Z,3.35
2017-01-10T11:34:39.787Z,3.3
2017-01-10T11:35:50.128Z,3.35
2017-01-10T11:37:00.880Z,3.26
2017-01-10T11:38:11.635Z,3.34
2017-01-10T11:39:22.366Z,3.26
2017-01-10T11:40:33.122Z,3.01
2017-01-10T11:41:43.454Z,2.55
2017-01-10T11:42:53.803Z,2.34
2017-01-10T11:44:04.555Z,1.98
2017-01-10T11:45:14.497Z,1.84
2017-01-10T11:46:25.239Z,1.57
2017-01-10T11:47:35.976Z,1.5
2017-01-10T11:48:46.338Z,1.4
2017-01-10T11:49:57.077Z,1.48
2017-01-10T11:51:07.440Z,1.61
2017-01-10T11:52:17.820Z,1.54
2017-01-10T11:53:28.566Z,1.72
2017-01-10T11:54:38.916Z,1.78
2017-01-10T11:55:48.899Z,1.74
2017-01-10T11:56:59.654Z,1.84
2017-01-10T11:58:09.996Z,2.05
2017-01-10T11:59:19.944Z,2.16
2017-01-10T12:00:30.680Z,2.18
2017-01-10T12:01:41.424Z,2.2
2017-01-10T12:02:52.181Z,2.2
2017-01-10T12:04:02.943Z,2.16
2017-01-10T12:05:13.672Z,2.09
2017-01-10T12:06:24.039Z,2.01
2017-01-10T12:07:34.794Z,1.83
2017-01-10T12:08:45.530Z,1.76
2017-01-10T12:09:55.899Z,1.82
2017-01-10T12:11:06.265Z,1.84
2017-01-10T12:12:16.612Z,1.78
2017-01-10T12:13:27.025Z,1.87
2017-01-10T12:14:37.367Z,1.82
2017-01-10T12:15:47.323Z,1.74
2017-01-10T12:16:57.664Z,1.72
2017-01-10T12:18:08.418Z,1.78
2017-01-10T12:19:19.199Z,1.92
2017-01-10T12:20:29.948Z,2.01
2017-01-10T12:21:40.690Z,1.87
2017-01-10T12:22:51.048Z,1.74
2017-01-10T12:24:01.821Z,1.68
2017-01-10T12:25:12.586Z,1.71
2017-01-10T12:26:22.946Z,1.56
2017-01-10T12:27:33.683Z,1.42
2017-01-10T12:28:44.031Z,1.57
2017-01-10T12:29:54.792Z,1.65
2017-01-10T12:31:05.537Z,1.84
2017-01-10T12:32:16.289Z,2.18
2017-01-10T12:33:27.023Z,2.48
2017-01-10T12:34:37.783Z,2.7
2017-01-10T12:35:48.761Z,2.8
2017-01-10T12:36:59.511Z,2.88
2017-01-10T12:38:10.288Z,3.13
2017-01-10T12:39:20.261Z,3.13
2017-01-10T12:40:31.248Z,2.95
2017-01-10T12:41:41.987Z,3.19
2017-01-10T12:42:52.351Z,3.48
2017-01-10T12:44:03.099Z,4
2017-01-10T12:45:13.835Z,4.53
2017-01-10T12:46:24.581Z,5
2017-01-10T12:47:35.323Z,5.45
2017-01-10T12:48:46.092Z,5.6
2017-01-10T12:49:56.442Z,6.03
2017-01-10T12:51:06.803Z,6.49
2017-01-10T12:52:17.563Z,6.54
2017-01-10T12:53:28.320Z,6.13
2017-01-10T12:54:39.093Z,5.6
2017-01-10T12:55:49.887Z,5.37
2017-01-10T12:57:00.646Z,5.33
2017-01-10T12:58:11.458Z,5.13
2017-01-10T12:59:22.213Z,5.6
2017-01-10T13:00:32.608Z,5.52
2017-01-10T13:01:43.360Z,5.78
2017-01-10T13:02:54.153Z,6.25
2017-01-10T13:04:04.920Z,6.44
2017-01-10T13:05:14.874Z,6.31
2017-01-10T13:06:25.638Z,5.95
2017-01-10T13:07:35.996Z,5.34
2017-01-10T13:08:46.338Z,4.71
2017-01-10T13:09:57.084Z,4.33
2017-01-10T13:11:07.852Z,3.84
2017-01-10T13:12:18.591Z,3.42
2017-01-10T13:13:28.947Z,3.17
2017-01-10T13:14:39.306Z,2.83
2017-01-10T13:15:49.649Z,2.59
2017-01-10T13:16:59.993Z,2.44
2017-01-10T13:18:10.729Z,2.33
2017-01-10T13:19:21.468Z,2.15
2017-01-10T13:20:31.839Z,1.98
2017-01-10T13:21:42.621Z,1.87
2017-01-10T13:22:52.559Z,1.65
2017-01-10T13:24:03.306Z,1.66
2017-01-10T13:25:14.041Z,1.5
2017-01-10T13:26:24.034Z,1.36
2017-01-10T13:27:34.773Z,1.17
2017-01-10T13:28:45.529Z,1.14
2017-01-10T13:29:56.281Z,1.04
2017-01-10T13:31:07.029Z,0.94
2017-01-10T13:32:17.783Z,0.93
2017-01-10T13:33:28.129Z,0.85
2017-01-10T13:34:38.907Z,0.75
2017-01-10T13:35:49.646Z,0.64
2017-01-10T13:37:00.399Z,0.6
2017-01-10T13:38:10.768Z,0.64
2017-01-10T13:39:21.515Z,0.47
2017-01-10T13:40:31.850Z,0.44
2017-01-10T13:41:42.202Z,0.35
2017-01-10T13:42:52.956Z,0.35
2017-01-10T13:44:03.694Z,0.19
2017-01-10T13:45:14.044Z,0.01
2017-01-10T13:46:24.380Z,0.01
2017-01-10T13:47:35.147Z,-0.13
2017-01-10T13:48:45.493Z,-0.05
2017-01-10T13:49:56.228Z,-0.18
2017-01-10T13:51:07.017Z,-0.38
2017-01-10T13:52:17.368Z,-0.4
2017-01-10T13:53:27.344Z,-0.54
2017-01-10T13:54:38.088Z,-0.62
2017-01-10T13:55:48.819Z,-0.66
2017-01-10T13:56:59.560Z,-0.72
2017-01-10T13:58:09.902Z,-0.56
2017-01-10T13:59:20.643Z,-0.67
2017-01-10T14:00:30.581Z,-0.59
2017-01-10T14:01:41.311Z,-0.69
2017-01-10T14:02:51.639Z,-0.82
2017-01-10T14:04:01.994Z,-0.85
2017-01-10T14:05:12.748Z,-0.93
2017-01-10T14:06:23.092Z,-1.09
2017-01-10T14:07:33.825Z,-1.21
2017-01-10T14:08:43.797Z,-1.35
2017-01-10T14:09:54.553Z,-1.49
2017-01-10T14:11:05.294Z,-1.46
2017-01-10T14:12:15.656Z,-1.52
2017-01-10T14:13:26.418Z,-1.66
2017-01-10T14:14:37.174Z,-1.58
2017-01-10T14:15:47.519Z,-1.66
2017-01-10T14:16:58.255Z,-1.71
2017-01-10T14:18:09.009Z,-1.78
2017-01-10T14:19:19.983Z,-1.73
2017-01-10T14:20:30.348Z,-1.71
2017-01-10T14:21:41.090Z,-1.76
2017-01-10T14:22:51.835Z,-1.78
2017-01-10T14:24:02.589Z,-1.73
2017-01-10T14:25:13.366Z,-1.74
2017-01-10T14:26:23.327Z,-1.7
2017-01-10T14:27:33.684Z,-1.7
2017-01-10T14:28:44.012Z,-1.7
2017-01-10T14:29:54.741Z,-1.7
2017-01-10T14:31:05.483Z,-1.78
2017-01-10T14:32:15.437Z,-1.73
2017-01-10T14:33:25.783Z,-1.74
2017-01-10T14:34:36.535Z,-1.7
2017-01-10T14:35:46.884Z,-1.7
2017-01-10T14:36:57.621Z,-1.76
2017-01-10T14:38:08.369Z,-1.73
2017-01-10T14:39:19.109Z,-1.71
2017-01-10T14:40:29.843Z,-1.71
2017-01-10T14:41:40.191Z,-1.73
2017-01-10T14:42:50.930Z,-1.81
2017-01-10T14:44:00.874Z,-1.86
2017-01-10T14:45:11.625Z,-1.84
2017-01-10T14:46:22.387Z,-1.92
2017-01-10T14:47:33.133Z,-1.89
2017-01-10T14:48:43.883Z,-1.96
2017-01-10T14:49:54.682Z,-1.96
2017-01-10T14:51:05.039Z,-1.97
2017-01-10T14:52:15.390Z,-1.99
2017-01-10T14:53:26.123Z,-2.05
2017-01-10T14:54:36.880Z,-2.02
2017-01-10T14:55:47.641Z,-2.14
2017-01-10T14:56:58.004Z,-2
2017-01-10T14:58:08.355Z,-2.12
2017-01-10T14:59:19.099Z,-2.15
2017-01-10T15:00:29.847Z,-2.15
2017-01-10T15:01:40.182Z,-2.23
2017-01-10T15:02:50.917Z,-2.25
2017-01-10T15:04:01.261Z,-2.17
2017-01-10T15:05:12.013Z,-2.27
2017-01-10T15:06:22.767Z,-2.24
2017-01-10T15:07:33.521Z,-2.2
2017-01-10T15:08:44.368Z,-2.39
2017-01-10T15:09:54.752Z,-2.5
2017-01-10T15:11:05.105Z,-2.46
2017-01-10T15:12:15.852Z,-2.43
2017-01-10T15:13:26.602Z,-2.46
2017-01-10T15:14:37.340Z,-2.44
2017-01-10T15:15:47.693Z,-2.44
2017-01-10T15:16:58.039Z,-2.44
2017-01-10T15:18:08.802Z,-2.49
2017-01-10T15:19:19.545Z,-2.5
2017-01-10T15:20:30.285Z,-2.6
2017-01-10T15:21:41.049Z,-2.61
2017-01-10T15:22:51.785Z,-2.64
2017-01-10T15:24:02.545Z,-2.58
2017-01-10T15:25:12.918Z,-2.64
2017-01-10T15:26:23.673Z,-2.62
2017-01-10T15:27:34.432Z,-2.67
2017-01-10T15:28:44.773Z,-2.67
2017-01-10T15:29:55.114Z,-2.72
2017-01-10T15:31:05.450Z,-2.73
2017-01-10T15:32:15.802Z,-2.75
2017-01-10T15:33:26.546Z,-2.78
2017-01-10T15:34:36.899Z,-2.78
2017-01-10T15:35:47.267Z,-2.81
2017-01-10T15:36:58.025Z,-2.94
2017-01-10T15:38:08.368Z,-2.91
2017-01-10T15:39:18.314Z,-2.85
2017-01-10T15:40:29.060Z,-2.96
2017-01-10T15:41:39.819Z,-2.91
2017-01-10T15:42:50.581Z,-2.93
2017-01-10T15:44:01.335Z,-2.97
2017-01-10T15:45:12.087Z,-2.96
2017-01-10T15:46:22.822Z,-3.04
2017-01-10T15:47:33.162Z,-3
2017-01-10T15:48:43.978Z,-3.03
2017-01-10T15:49:54.343Z,-3.11
2017-01-10T15:51:05.097Z,-3.09
2017-01-10T15:52:15.830Z,-3.14
2017-01-10T15:53:26.175Z,-3.17
2017-01-10T15:54:36.914Z,-3.17